Etusivu
METAR-TAF:

METAR-TAF

Lentoasemat :

Tri-Township Airport

Savanna, Illinois, Yhdysvallat

Leveyspiiri: 42-02-45N, Pituuspiiri: 090-06-28W, korkeus merenpinnasta: 188 m

Tämänhetkinen sää

Tämä raportti tehtiin 33 minuuttia sitten, kello 19.15 UTC
Tuuli 3 kn luoteesta
Lämpötila -1°C
Kosteus 64%
Ilmanpaine 1025 hPa
Näkyvyys: 16.1 km
Pilvistä 2600 ft:n korkeudessa

METAR: KSFY 141915Z AUTO 31003KT 10SM OVC026 M01/M07 A3028 RMK AO2

Aika: 13:48 (19:48 UTC)


TAF: puuttuu

Säähavainnot ja -ennusteet yli 4000 lentoasemalta (METAR- ja TAF-raportit).

Käytössä olevat sääasemat on merkitty karttaan keltaisilla ja punaisilla pisteillä.

Aseta hiiri pisteen päälle nähdäksesi sääaseman nimen.

Klikkaa sitten nähdäksesi säähavainnot ja -ennusteet.

Kartan vaihtaminen: klikkaa mustalla rastilla varustettuja vihreitä pisteitä, niin voit zoomata sisään; viivalla varustettua vihreää pistettä, niin voit zoomata ulos tai vihreitä nuolia, niin pääset viereisille kartoille.


METAR-TAF: